KSHD/SHD METAR and TAF weather

Enter ICAO airport designator
Station Type Date Time Source
KSHD METAR 2020/04/07 06:15 UTC NOAA

KSHD 070615Z AUTO 00000KT 10SM CLR 09/08 A3002 RMK AO2 T00900079


Station Type Date Time Source
KSHD Decoded METAR 2020/04/07 06:15 UTC NOAA

Staunton / Shenandoah, VA, United States (KSHD) 38-16N 078-54W
Apr 07, 2020 - 02:15 AM EDT / 2020.04.07 0615 UTC
Wind: Calm:0
Visibility: 10 mile(s):0
Sky conditions: clear
Temperature: 48.2 F (9.0 C)
Dew Point: 46.2 F (7.9 C)
Relative Humidity: 92%
Pressure (altimeter): 30.02 in. Hg (1016 hPa)
ob: KSHD 070615Z AUTO 00000KT 10SM CLR 09/08 A3002 RMK AO2 T00900079
cycle: 6

Station Type Date Time Source
KSHD TAF UTC NOAA

Error!

Example: see airport list